createdAt,value
2022-09-12T00:01:36.802Z,8.13
2022-09-12T00:04:05.460Z,7.15
2022-09-12T00:06:36.038Z,7.05
2022-09-12T00:09:07.626Z,7.70
2022-09-12T00:11:38.573Z,7.35
2022-09-12T00:14:08.700Z,8.48
2022-09-12T00:16:38.738Z,9.80
2022-09-12T00:19:08.823Z,9.75
2022-09-12T00:21:39.329Z,10.68
2022-09-12T00:24:08.910Z,7.55
2022-09-12T00:26:38.907Z,9.80
2022-09-12T00:29:07.342Z,7.95
2022-09-12T00:31:35.819Z,11.70
2022-09-12T00:34:04.212Z,9.68
2022-09-12T00:36:32.736Z,8.63
2022-09-12T00:39:01.102Z,12.43
2022-09-12T00:41:32.015Z,11.18
2022-09-12T00:44:05.655Z,10.48
2022-09-12T00:46:40.119Z,11.20
2022-09-12T00:49:13.467Z,8.82
2022-09-12T00:51:46.195Z,13.00
2022-09-12T00:54:18.033Z,11.25
2022-09-12T00:56:49.538Z,11.82
2022-09-12T00:59:22.896Z,11.35
2022-09-12T01:01:52.886Z,13.60
2022-09-12T01:04:24.444Z,11.40
2022-09-12T01:06:53.715Z,11.65
2022-09-12T01:09:25.400Z,13.13
2022-09-12T01:11:54.580Z,11.55
2022-09-12T01:14:24.751Z,11.70
2022-09-12T01:16:53.296Z,15.88
2022-09-12T01:19:51.243Z,13.70
2022-09-12T01:22:41.576Z,12.13
2022-09-12T01:25:24.449Z,11.52
2022-09-12T01:28:18.103Z,12.80
2022-09-12T01:30:51.508Z,12.57
2022-09-12T01:33:37.314Z,13.23
2022-09-12T01:36:29.798Z,12.50
2022-09-12T01:39:03.138Z,13.98
2022-09-12T01:41:41.043Z,14.07
2022-09-12T01:44:18.432Z,13.95
2022-09-12T01:46:53.690Z,13.55
2022-09-12T01:49:26.451Z,15.50
2022-09-12T01:52:01.106Z,13.32
2022-09-12T01:54:36.589Z,13.43
2022-09-12T01:59:43.785Z,17.05
2022-09-12T02:02:17.491Z,15.85
2022-09-12T02:04:52.678Z,14.15
2022-09-12T02:07:24.676Z,14.30
2022-09-12T02:09:57.976Z,14.73
2022-09-12T02:12:32.404Z,12.95
2022-09-12T02:15:04.561Z,15.77
2022-09-12T02:17:39.430Z,16.02
2022-09-12T02:20:21.396Z,16.00
2022-09-12T02:23:01.742Z,15.38
2022-09-12T02:25:31.399Z,15.40
2022-09-12T02:28:02.923Z,16.50
2022-09-12T02:30:35.972Z,16.05
2022-09-12T02:33:10.906Z,14.98
2022-09-12T02:35:47.725Z,16.60
2022-09-12T02:38:26.350Z,15.40
2022-09-12T02:40:55.355Z,17.48
2022-09-12T02:43:23.705Z,16.00
2022-09-12T02:45:52.177Z,16.17
2022-09-12T02:48:27.416Z,14.35
2022-09-12T02:50:56.008Z,17.75
2022-09-12T02:53:25.031Z,15.25
2022-09-12T02:55:54.102Z,16.55
2022-09-12T02:58:25.190Z,18.35
2022-09-12T03:01:01.193Z,17.13
2022-09-12T03:03:44.583Z,17.77
2022-09-12T03:06:22.382Z,17.05
2022-09-12T03:09:09.171Z,17.08
2022-09-12T03:11:59.047Z,18.60
2022-09-12T03:14:39.261Z,20.67
2022-09-12T03:17:15.487Z,23.20
2022-09-12T03:19:55.215Z,22.05
2022-09-12T03:22:32.603Z,22.58
2022-09-12T03:25:07.408Z,22.67
2022-09-12T03:27:40.970Z,18.52
2022-09-12T03:30:10.933Z,22.35
2022-09-12T03:32:44.543Z,18.88
2022-09-12T03:35:18.842Z,19.50
2022-09-12T03:37:52.397Z,21.55
2022-09-12T03:40:21.386Z,20.70
2022-09-12T03:42:49.706Z,18.52
2022-09-12T03:45:18.506Z,18.63
2022-09-12T03:47:46.897Z,19.73
2022-09-12T03:50:16.827Z,20.00
2022-09-12T03:52:45.206Z,19.10
2022-09-12T03:55:13.563Z,22.40
2022-09-12T03:57:42.052Z,21.20
2022-09-12T04:00:15.307Z,19.52
2022-09-12T04:02:46.103Z,20.40
2022-09-12T04:05:16.175Z,19.98
2022-09-12T04:07:44.624Z,18.77
2022-09-12T04:10:16.048Z,18.90
2022-09-12T04:12:45.102Z,21.58
2022-09-12T04:15:13.485Z,21.70
2022-09-12T04:17:41.891Z,20.92
2022-09-12T04:20:10.584Z,19.00
2022-09-12T04:22:40.387Z,21.50
2022-09-12T04:25:10.347Z,20.27
2022-09-12T04:27:38.710Z,21.10
2022-09-12T04:30:08.836Z,22.27
2022-09-12T04:32:37.762Z,18.63
2022-09-12T04:35:06.411Z,16.83
2022-09-12T04:37:34.940Z,19.15
2022-09-12T04:40:05.628Z,21.10
2022-09-12T04:42:34.124Z,19.35
2022-09-12T04:45:03.498Z,18.13
2022-09-12T04:47:32.021Z,20.38
2022-09-12T04:50:00.435Z,20.80
2022-09-12T04:52:28.806Z,20.58
2022-09-12T04:54:57.194Z,21.25
2022-09-12T04:57:26.965Z,18.58
2022-09-12T04:59:55.664Z,19.27
2022-09-12T05:02:24.298Z,17.90
2022-09-12T05:04:54.174Z,16.05
2022-09-12T05:07:22.509Z,18.25
2022-09-12T05:09:50.829Z,18.40
2022-09-12T05:12:19.134Z,18.02
2022-09-12T05:14:49.021Z,21.45
2022-09-12T05:17:18.769Z,19.55
2022-09-12T05:19:48.766Z,18.17
2022-09-12T05:22:17.156Z,19.73
2022-09-12T05:24:50.323Z,16.80
2022-09-12T05:27:20.013Z,19.05
2022-09-12T05:29:49.780Z,19.83
2022-09-12T05:32:18.199Z,17.17
2022-09-12T05:34:46.574Z,17.67
2022-09-12T05:37:15.167Z,19.60
2022-09-12T05:39:43.689Z,17.77
2022-09-12T05:42:12.110Z,18.70
2022-09-12T05:44:40.558Z,19.38
2022-09-12T05:47:12.384Z,15.27
2022-09-12T05:49:40.796Z,20.23
2022-09-12T05:52:09.202Z,14.25
2022-09-12T05:54:37.621Z,13.25
2022-09-12T05:57:06.273Z,14.38
2022-09-12T05:59:34.857Z,16.88
2022-09-12T06:02:03.207Z,15.75
2022-09-12T06:04:33.113Z,16.83
2022-09-12T06:07:01.518Z,15.55
2022-09-12T06:09:30.027Z,14.75
2022-09-12T06:11:58.648Z,13.10
2022-09-12T06:14:26.995Z,16.65
2022-09-12T06:16:55.364Z,18.38
2022-09-12T06:19:25.031Z,16.77
2022-09-12T06:21:55.300Z,15.73
2022-09-12T06:24:24.152Z,14.38
2022-09-12T06:26:53.453Z,16.08
2022-09-12T06:29:21.928Z,10.80
2022-09-12T06:31:50.271Z,15.15
2022-09-12T06:34:19.471Z,11.68
2022-09-12T06:36:49.838Z,12.43
2022-09-12T06:39:21.489Z,11.00
2022-09-12T06:41:51.300Z,12.82
2022-09-12T06:44:21.059Z,10.98
2022-09-12T06:46:50.195Z,8.10
2022-09-12T06:49:18.680Z,9.25
2022-09-12T06:51:47.147Z,7.47
2022-09-12T06:54:16.772Z,7.28
2022-09-12T06:56:46.802Z,8.13
2022-09-12T06:59:15.335Z,7.60
2022-09-12T07:01:43.780Z,5.25
2022-09-12T07:04:12.475Z,5.43
2022-09-12T07:06:44.460Z,6.38
2022-09-12T07:09:16.281Z,4.85
2022-09-12T07:11:47.389Z,4.63
2022-09-12T07:14:16.238Z,6.20
2022-09-12T07:16:44.926Z,6.90
2022-09-12T07:19:13.405Z,6.63
2022-09-12T07:21:44.672Z,4.05
2022-09-12T07:24:13.140Z,3.58
2022-09-12T07:26:42.675Z,4.60
2022-09-12T07:32:06.587Z,3.78
2022-09-12T07:34:35.565Z,3.15
2022-09-12T07:37:04.476Z,4.13
2022-09-12T07:39:33.493Z,4.82
2022-09-12T07:42:02.811Z,3.47
2022-09-12T07:44:32.828Z,3.63
2022-09-12T07:47:01.636Z,4.13
2022-09-12T07:49:30.463Z,3.65
2022-09-12T07:51:58.771Z,3.95
2022-09-12T07:54:33.309Z,3.72
2022-09-12T07:57:01.837Z,3.55
2022-09-12T07:59:51.402Z,4.65
2022-09-12T08:02:21.207Z,3.75
2022-09-12T08:04:49.872Z,4.97
2022-09-12T08:07:19.381Z,4.05
2022-09-12T08:09:48.096Z,6.03
2022-09-12T08:12:16.597Z,3.63
2022-09-12T08:14:49.367Z,3.45
2022-09-12T08:17:17.938Z,4.60
2022-09-12T08:19:48.198Z,3.88
2022-09-12T08:22:16.602Z,3.83
2022-09-12T08:24:45.156Z,3.25
2022-09-12T08:27:16.515Z,3.75
2022-09-12T08:29:45.067Z,2.70
2022-09-12T08:32:13.518Z,2.50
2022-09-12T08:34:41.857Z,2.50
2022-09-12T08:37:11.707Z,2.60
2022-09-12T08:39:40.246Z,2.40
2022-09-12T08:42:16.483Z,2.80
2022-09-12T08:45:13.195Z,2.83
2022-09-12T08:47:45.555Z,2.25
2022-09-12T08:50:17.856Z,2.28
2022-09-12T08:53:05.477Z,2.20
2022-09-12T08:55:36.574Z,3.42
2022-09-12T08:58:14.339Z,2.95
2022-09-12T09:00:52.122Z,2.35
2022-09-12T09:03:38.111Z,2.47
2022-09-12T09:06:18.232Z,2.17
2022-09-12T09:08:58.928Z,3.05
2022-09-12T09:11:49.953Z,3.33
2022-09-12T09:14:50.076Z,2.10
2022-09-12T09:17:26.234Z,2.83
2022-09-12T09:20:03.041Z,2.10
2022-09-12T09:22:39.829Z,2.30
2022-09-12T09:25:22.097Z,2.30
2022-09-12T09:27:58.558Z,2.00
2022-09-12T09:30:26.975Z,2.00
2022-09-12T09:32:58.631Z,3.00
2022-09-12T09:35:40.796Z,2.72
2022-09-12T09:38:24.489Z,4.57
2022-09-12T09:41:08.211Z,2.17
2022-09-12T09:43:38.511Z,2.33
2022-09-12T09:46:07.713Z,2.38
2022-09-12T09:48:38.531Z,2.22
2022-09-12T09:51:09.258Z,3.63
2022-09-12T09:53:49.230Z,2.28
2022-09-12T09:56:29.184Z,5.35
2022-09-12T09:58:58.028Z,2.47
2022-09-12T10:01:28.361Z,1.92
2022-09-12T10:03:57.396Z,2.72
2022-09-12T10:06:34.552Z,1.85
2022-09-12T10:09:18.335Z,2.10
2022-09-12T10:11:58.643Z,1.70
2022-09-12T10:14:39.068Z,2.88
2022-09-12T10:17:34.531Z,2.67
2022-09-12T10:20:20.336Z,3.28
2022-09-12T10:22:50.666Z,1.67
2022-09-12T10:25:21.362Z,1.75
2022-09-12T10:27:59.646Z,3.45
2022-09-12T10:30:29.156Z,2.15
2022-09-12T10:33:13.705Z,3.15
2022-09-12T10:35:47.061Z,2.83
2022-09-12T10:38:29.544Z,2.30
2022-09-12T10:41:03.866Z,1.83
2022-09-12T10:43:39.681Z,2.53
2022-09-12T10:46:29.434Z,2.55
2022-09-12T10:49:22.338Z,1.55
2022-09-12T10:51:51.726Z,1.50
2022-09-12T10:54:22.355Z,1.73
2022-09-12T10:57:22.757Z,2.08
2022-09-12T11:00:05.923Z,2.03
2022-09-12T11:02:53.225Z,1.45
2022-09-12T11:05:57.498Z,1.52
2022-09-12T11:08:56.979Z,1.55
2022-09-12T11:11:51.520Z,2.05
2022-09-12T11:14:35.917Z,1.17
2022-09-12T11:17:21.923Z,1.27
2022-09-12T11:20:28.940Z,1.77
2022-09-12T11:23:19.967Z,1.63
2022-09-12T11:25:53.403Z,1.15
2022-09-12T11:28:35.606Z,1.98
2022-09-12T11:31:24.740Z,1.20
2022-09-12T11:33:59.322Z,1.42
2022-09-12T11:36:43.562Z,1.70
2022-09-12T11:39:15.389Z,1.25
2022-09-12T11:41:47.915Z,1.02
2022-09-12T11:44:22.339Z,1.25
2022-09-12T11:46:52.201Z,1.30
2022-09-12T11:49:35.399Z,1.20
2022-09-12T11:52:12.645Z,1.47
2022-09-12T11:54:49.017Z,1.27
2022-09-12T11:57:28.130Z,1.30
2022-09-12T12:00:05.287Z,1.30
2022-09-12T12:02:44.566Z,1.63
2022-09-12T12:05:25.511Z,4.25
2022-09-12T12:07:55.918Z,6.13
2022-09-12T12:10:35.630Z,17.48
2022-09-12T12:13:13.306Z,1.48
2022-09-12T12:15:48.602Z,1.50
2022-09-12T12:18:21.255Z,1.10
2022-09-12T12:20:51.572Z,1.33
2022-09-12T12:23:31.865Z,1.10
2022-09-12T12:26:02.755Z,1.58
2022-09-12T12:29:00.034Z,1.17
2022-09-12T12:31:29.206Z,1.90
2022-09-12T12:34:28.440Z,1.42
2022-09-12T12:37:00.177Z,1.20
2022-09-12T12:40:04.727Z,1.15
2022-09-12T12:43:26.746Z,3.05
2022-09-12T12:46:16.994Z,2.42
2022-09-12T12:49:31.607Z,1.58
2022-09-12T12:52:03.329Z,1.20
2022-09-12T12:54:59.715Z,1.92
2022-09-12T12:57:49.829Z,2.20
2022-09-12T13:00:32.164Z,7.45
2022-09-12T13:03:12.797Z,1.50
2022-09-12T13:05:44.826Z,10.60
2022-09-12T13:08:30.314Z,6.03
2022-09-12T13:11:09.407Z,2.30
2022-09-12T13:13:42.341Z,7.53
2022-09-12T13:16:11.409Z,2.88
2022-09-12T13:18:49.640Z,1.85
2022-09-12T13:21:20.603Z,1.17
2022-09-12T13:24:03.220Z,1.00
2022-09-12T13:26:43.921Z,1.25
2022-09-12T13:29:18.548Z,1.10
2022-09-12T13:31:49.619Z,1.33
2022-09-12T13:34:21.748Z,1.67
2022-09-12T13:37:12.895Z,1.17
2022-09-12T13:39:49.509Z,1.30
2022-09-12T13:42:42.514Z,1.38
2022-09-12T13:45:15.889Z,1.95
2022-09-12T13:47:46.459Z,1.47
2022-09-12T13:50:21.490Z,1.95
2022-09-12T13:52:54.165Z,1.60
2022-09-12T13:55:31.458Z,1.38
2022-09-12T13:58:02.388Z,1.45
2022-09-12T14:00:37.167Z,1.42
2022-09-12T14:03:42.751Z,1.30
2022-09-12T14:08:41.532Z,2.05
2022-09-12T14:11:12.715Z,2.03
2022-09-12T14:13:41.427Z,1.65
2022-09-12T14:16:15.332Z,2.00
2022-09-12T14:18:45.437Z,1.40
2022-09-12T14:21:34.078Z,1.45
2022-09-12T14:24:04.810Z,1.40
2022-09-12T14:26:38.074Z,1.75
2022-09-12T14:29:08.017Z,2.88
2022-09-12T14:31:39.264Z,1.48
2022-09-12T14:34:15.526Z,1.92
2022-09-12T14:36:47.680Z,1.67
2022-09-12T14:39:22.906Z,1.63
2022-09-12T14:42:05.447Z,1.60
2022-09-12T14:44:38.140Z,1.92
2022-09-12T14:47:16.334Z,1.50
2022-09-12T14:49:45.096Z,1.73
2022-09-12T14:52:30.186Z,2.58
2022-09-12T14:57:39.341Z,2.33
2022-09-12T15:00:20.337Z,1.38
2022-09-12T15:02:49.591Z,2.38
2022-09-12T15:05:21.215Z,2.53
2022-09-12T15:07:56.028Z,1.30
2022-09-12T15:13:20.291Z,1.77
2022-09-12T15:15:52.965Z,1.30
2022-09-12T15:18:24.027Z,1.67
2022-09-12T15:20:56.295Z,1.27
2022-09-12T15:23:33.035Z,1.73
2022-09-12T15:26:05.573Z,1.70
2022-09-12T15:28:36.082Z,1.17
2022-09-12T15:31:08.300Z,1.48
2022-09-12T15:33:36.819Z,1.85
2022-09-12T15:36:17.599Z,1.98
2022-09-12T15:38:47.144Z,2.05
2022-09-12T15:41:17.957Z,1.33
2022-09-12T15:43:48.348Z,2.20
2022-09-12T15:46:26.259Z,1.25
2022-09-12T15:48:54.893Z,1.30
2022-09-12T15:51:23.431Z,1.55
2022-09-12T15:53:52.597Z,1.50
2022-09-12T15:56:22.640Z,2.00
2022-09-12T15:59:00.198Z,1.77
2022-09-12T16:01:29.795Z,1.40
2022-09-12T16:03:58.616Z,2.10
2022-09-12T16:06:27.772Z,1.77
2022-09-12T16:08:56.321Z,2.28
2022-09-12T16:11:26.939Z,1.30
2022-09-12T16:13:57.287Z,1.40
2022-09-12T16:16:27.651Z,1.95
2022-09-12T16:18:58.580Z,1.33
2022-09-12T16:21:27.497Z,1.65
2022-09-12T16:23:56.930Z,1.70
2022-09-12T16:26:25.524Z,1.42
2022-09-12T16:28:56.751Z,1.50
2022-09-12T16:31:27.549Z,2.28
2022-09-12T16:33:56.978Z,2.35
2022-09-12T16:36:25.695Z,1.50
2022-09-12T16:38:55.145Z,2.42
2022-09-12T16:41:27.557Z,2.85
2022-09-12T16:43:56.896Z,43.25
2022-09-12T16:46:29.224Z,8.68
2022-09-12T16:48:59.361Z,4.63
2022-09-12T16:51:29.637Z,1.75
2022-09-12T16:53:58.498Z,1.60
2022-09-12T16:56:30.661Z,3.63
2022-09-12T16:58:59.125Z,1.60
2022-09-12T17:01:29.153Z,1.73
2022-09-12T17:04:00.485Z,1.85
2022-09-12T17:06:29.373Z,1.55
2022-09-12T17:09:02.648Z,1.63
2022-09-12T17:11:33.648Z,1.92
2022-09-12T17:14:05.809Z,1.70
2022-09-12T17:16:49.436Z,1.73
2022-09-12T17:19:22.521Z,1.88
2022-09-12T17:21:51.026Z,2.45
2022-09-12T17:24:21.283Z,1.58
2022-09-12T17:26:50.043Z,2.10
2022-09-12T17:29:18.712Z,1.75
2022-09-12T17:31:48.729Z,2.58
2022-09-12T17:34:17.902Z,2.92
2022-09-12T17:36:49.578Z,2.22
2022-09-12T17:39:18.067Z,3.63
2022-09-12T17:41:47.102Z,3.72
2022-09-12T17:44:16.606Z,2.22
2022-09-12T17:46:45.237Z,2.80
2022-09-12T17:49:20.660Z,1.92
2022-09-12T17:51:49.575Z,2.10
2022-09-12T17:54:20.757Z,2.10
2022-09-12T17:56:51.523Z,2.50
2022-09-12T17:59:21.848Z,3.75
2022-09-12T18:02:07.729Z,3.25
2022-09-12T18:04:37.668Z,2.60
2022-09-12T18:07:06.497Z,2.20
2022-09-12T18:09:36.187Z,2.85
2022-09-12T18:12:05.208Z,2.70
2022-09-12T18:14:33.967Z,2.65
2022-09-12T18:17:02.552Z,2.63
2022-09-12T18:19:31.877Z,2.33
2022-09-12T18:22:01.845Z,4.00
2022-09-12T18:24:30.573Z,2.42
2022-09-12T18:26:59.124Z,1.98
2022-09-12T18:29:27.935Z,2.75
2022-09-12T18:31:56.375Z,4.55
2022-09-12T18:34:24.751Z,2.25
2022-09-12T18:36:54.810Z,2.92
2022-09-12T18:39:27.739Z,2.10
2022-09-12T18:41:56.833Z,5.18
2022-09-12T18:44:25.254Z,2.33
2022-09-12T18:46:53.888Z,3.00
2022-09-12T18:49:22.399Z,3.15
2022-09-12T18:51:51.006Z,3.22
2022-09-12T18:54:20.268Z,2.28
2022-09-12T18:56:50.036Z,2.63
2022-09-12T18:59:18.637Z,2.13
2022-09-12T19:01:48.095Z,5.32
2022-09-12T19:04:16.627Z,2.42
2022-09-12T19:06:46.588Z,3.75
2022-09-12T19:09:17.877Z,2.88
2022-09-12T19:11:49.639Z,4.22
2022-09-12T19:14:23.052Z,3.90
2022-09-12T19:16:52.194Z,3.60
2022-09-12T19:19:21.156Z,3.33
2022-09-12T19:21:49.750Z,3.05
2022-09-12T19:24:18.189Z,2.58
2022-09-12T19:26:46.645Z,2.40
2022-09-12T19:29:16.535Z,2.85
2022-09-12T19:31:46.985Z,3.20
2022-09-12T19:34:16.095Z,1.70
2022-09-12T19:36:46.260Z,1.88
2022-09-12T19:39:17.583Z,2.25
2022-09-12T19:41:46.535Z,2.20
2022-09-12T19:44:15.405Z,2.88
2022-09-12T19:46:43.879Z,1.98
2022-09-12T19:49:13.802Z,2.85
2022-09-12T19:51:42.518Z,1.90
2022-09-12T19:54:10.877Z,2.20
2022-09-12T19:56:39.230Z,1.60
2022-09-12T19:59:08.623Z,1.52
2022-09-12T20:01:37.650Z,1.85
2022-09-12T20:04:06.718Z,1.50
2022-09-12T20:06:36.683Z,1.83
2022-09-12T20:09:05.152Z,2.22
2022-09-12T20:11:33.712Z,1.70
2022-09-12T20:14:02.274Z,1.60
2022-09-12T20:16:31.679Z,2.38
2022-09-12T20:19:02.535Z,1.92
2022-09-12T20:21:35.700Z,1.50
2022-09-12T20:24:07.247Z,3.92
2022-09-12T20:26:35.784Z,1.55
2022-09-12T20:29:05.225Z,2.13
2022-09-12T20:31:33.759Z,2.80
2022-09-12T20:34:02.707Z,1.90
2022-09-12T20:36:31.087Z,1.52
2022-09-12T20:39:02.298Z,1.98
2022-09-12T20:41:34.438Z,1.52
2022-09-12T20:44:03.129Z,2.00
2022-09-12T20:46:31.537Z,2.08
2022-09-12T20:49:00.025Z,1.80
2022-09-12T20:51:30.186Z,1.65
2022-09-12T20:54:00.097Z,1.63
2022-09-12T20:56:29.784Z,1.70
2022-09-12T20:59:00.375Z,1.80
2022-09-12T21:01:30.409Z,1.90
2022-09-12T21:03:59.977Z,1.95
2022-09-12T21:06:28.595Z,3.15
2022-09-12T21:08:59.688Z,1.92
2022-09-12T21:11:28.759Z,3.25
2022-09-12T21:13:58.889Z,1.52
2022-09-12T21:16:27.491Z,1.60
2022-09-12T21:18:58.076Z,2.65
2022-09-12T21:21:27.156Z,1.98
2022-09-12T21:23:59.019Z,2.13
2022-09-12T21:26:27.470Z,2.92
2022-09-12T21:28:55.879Z,1.42
2022-09-12T21:31:25.920Z,2.33
2022-09-12T21:33:54.344Z,1.92
2022-09-12T21:36:22.920Z,2.00
2022-09-12T21:38:51.329Z,1.73
2022-09-12T21:41:19.689Z,2.28
2022-09-12T21:43:50.667Z,2.95
2022-09-12T21:46:19.099Z,1.50
2022-09-12T21:48:48.884Z,1.50
2022-09-12T21:51:18.210Z,1.83
2022-09-12T21:53:46.796Z,2.50
2022-09-12T21:56:15.142Z,2.38
2022-09-12T21:58:43.688Z,2.58
2022-09-12T22:01:13.023Z,1.83
2022-09-12T22:03:42.910Z,2.30
2022-09-12T22:06:14.129Z,1.77
2022-09-12T22:08:42.961Z,2.00
2022-09-12T22:11:11.727Z,1.92
2022-09-12T22:13:42.625Z,1.70
2022-09-12T22:16:11.913Z,2.55
2022-09-12T22:18:40.599Z,1.65
2022-09-12T22:21:12.579Z,2.75
2022-09-12T22:24:00.457Z,1.77
2022-09-12T22:26:29.295Z,2.17
2022-09-12T22:28:57.670Z,2.60
2022-09-12T22:31:26.910Z,2.83
2022-09-12T22:33:56.922Z,2.00
2022-09-12T22:36:29.196Z,2.78
2022-09-12T22:39:00.856Z,2.10
2022-09-12T22:41:29.290Z,1.92
2022-09-12T22:43:58.447Z,3.38
2022-09-12T22:46:27.423Z,2.47
2022-09-12T22:48:56.538Z,2.67
2022-09-12T22:51:24.956Z,2.72
2022-09-12T22:53:53.672Z,2.30
2022-09-12T22:56:23.979Z,2.85
2022-09-12T22:58:52.500Z,3.55
2022-09-12T23:01:21.117Z,2.47
2022-09-12T23:03:49.544Z,2.20
2022-09-12T23:06:18.938Z,2.22
2022-09-12T23:08:47.284Z,2.47
2022-09-12T23:11:17.245Z,2.67
2022-09-12T23:13:49.005Z,2.75
2022-09-12T23:16:19.265Z,2.60
2022-09-12T23:18:48.221Z,2.60
2022-09-12T23:21:18.678Z,2.40
2022-09-12T23:23:47.442Z,3.25
2022-09-12T23:26:18.533Z,2.67
2022-09-12T23:28:52.750Z,2.88
2022-09-12T23:31:23.168Z,2.83
2022-09-12T23:33:53.961Z,3.13
2022-09-12T23:36:23.380Z,3.08
2022-09-12T23:38:51.897Z,4.47
2022-09-12T23:41:20.552Z,3.25
2022-09-12T23:43:50.522Z,4.25
2022-09-12T23:46:19.847Z,2.85
2022-09-12T23:48:48.970Z,3.53
2022-09-12T23:51:17.542Z,3.13
2022-09-12T23:53:45.922Z,4.30
2022-09-12T23:56:14.366Z,2.47
2022-09-12T23:58:42.803Z,2.72
